Time;durP1;ratioP1;P1;durP2;ratioP2;P2;SDS_P1;SDS_P2;PMS_P1;PMS_P2;Temp;Humidity;BMP_temperature;BMP_pressure;BME280_temperature;BME280_humidity;BME280_pressure;Samples;Min_cycle;Max_cycle;Signal;HPM_P1;HPM_P2
2023/07/13 00:00:16;;;;;;;13.68;3.85;;;17.10;99.90;;;;;;5076349;28;20115;-57
2023/07/13 00:02:42;;;;;;;11.68;3.20;;;17.00;99.90;;;;;;5077984;28;20404;-57
2023/07/13 00:05:08;;;;;;;12.27;3.40;;;17.00;99.90;;;;;;5076855;28;20098;-57
2023/07/13 00:07:34;;;;;;;13.98;2.97;;;17.10;99.90;;;;;;5077427;28;20051;-57
2023/07/13 00:10:00;;;;;;;16.42;3.35;;;17.00;99.90;;;;;;5077160;28;20533;-58
2023/07/13 00:12:45;;;;;;;12.38;3.80;;;17.10;99.90;;;;;;5077163;28;20514;-58
2023/07/13 00:15:23;;;;;;;9.75;2.95;;;17.00;99.90;;;;;;5077649;28;20717;-58
2023/07/13 00:17:53;;;;;;;9.93;3.30;;;17.00;99.90;;;;;;5076645;28;20465;-58
2023/07/13 00:20:24;;;;;;;12.40;3.55;;;17.00;99.90;;;;;;5077235;28;20493;-57
2023/07/13 00:22:52;;;;;;;10.23;3.08;;;17.10;99.90;;;;;;5077428;28;20056;-58
2023/07/13 00:25:18;;;;;;;17.38;3.45;;;17.10;99.90;;;;;;5076771;28;20044;-57
2023/07/13 00:27:44;;;;;;;12.65;3.47;;;17.00;99.90;;;;;;5078966;28;20071;-58
2023/07/13 00:30:10;;;;;;;14.20;4.63;;;17.00;99.90;;;;;;5080155;28;20045;-58
2023/07/13 00:32:37;;;;;;;12.00;3.97;;;17.10;99.90;;;;;;5081732;28;20048;-58
2023/07/13 00:35:04;;;;;;;9.93;2.80;;;16.90;99.90;;;;;;5080366;28;20407;-58
2023/07/13 00:37:30;;;;;;;14.50;3.50;;;16.90;99.90;;;;;;5079559;28;20072;-58
2023/07/13 00:39:56;;;;;;;13.07;3.33;;;17.00;99.90;;;;;;5079296;28;20060;-58
2023/07/13 00:42:21;;;;;;;10.35;3.05;;;17.00;99.90;;;;;;5080248;28;20131;-58
2023/07/13 00:45:07;;;;;;;14.00;3.85;;;16.90;99.90;;;;;;5081397;28;20119;-58
2023/07/13 00:47:33;;;;;;;13.13;3.70;;;16.80;99.90;;;;;;5079797;28;20068;-58
2023/07/13 00:49:59;;;;;;;13.43;3.30;;;16.90;99.90;;;;;;5081235;28;20087;-58
2023/07/13 00:52:26;;;;;;;9.07;3.10;;;16.90;99.90;;;;;;5080715;28;20174;-60
2023/07/13 00:54:52;;;;;;;14.32;3.20;;;16.80;99.90;;;;;;5080594;28;20130;-58
2023/07/13 00:57:20;;;;;;;11.60;3.20;;;16.80;99.90;;;;;;5080743;28;20113;-59
2023/07/13 00:59:50;;;;;;;10.07;3.20;;;16.80;99.90;;;;;;5080242;28;20048;-59
2023/07/13 01:02:16;;;;;;;13.93;3.38;;;16.80;99.90;;;;;;5081065;28;20442;-59
2023/07/13 01:04:43;;;;;;;13.25;3.97;;;16.80;99.90;;;;;;5079638;28;20104;-59
2023/07/13 01:07:11;;;;;;;12.32;3.10;;;16.80;99.90;;;;;;5080490;28;20044;-59
2023/07/13 01:09:37;;;;;;;14.68;3.28;;;16.80;99.90;;;;;;5080308;28;20074;-59
2023/07/13 01:12:03;;;;;;;14.20;4.10;;;16.80;99.90;;;;;;5080193;28;20127;-58
2023/07/13 01:14:29;;;;;;;11.95;2.83;;;16.90;99.90;;;;;;5080602;28;20109;-59
2023/07/13 01:16:55;;;;;;;9.88;2.67;;;16.80;99.90;;;;;;5079933;28;20036;-58
2023/07/13 01:19:37;;;;;;;10.57;3.22;;;16.90;99.90;;;;;;5080755;28;20055;-59
2023/07/13 01:22:14;;;;;;;11.15;3.72;;;16.80;99.90;;;;;;5079505;28;20110;-59
2023/07/13 01:24:45;;;;;;;13.70;3.63;;;16.90;99.90;;;;;;5078994;28;20461;-58
2023/07/13 01:27:13;;;;;;;12.15;3.05;;;16.90;99.90;;;;;;5080330;28;20048;-59
2023/07/13 01:29:43;;;;;;;10.63;3.28;;;16.90;99.90;;;;;;5079892;28;20064;-58
2023/07/13 01:32:12;;;;;;;10.13;2.83;;;17.00;99.90;;;;;;5078881;28;20127;-58
2023/07/13 01:34:38;;;;;;;8.35;2.25;;;17.00;99.90;;;;;;5079061;28;20301;-58
2023/07/13 01:37:07;;;;;;;9.50;2.33;;;17.00;99.90;;;;;;5080207;28;20044;-58
2023/07/13 01:39:33;;;;;;;7.90;2.13;;;16.90;99.90;;;;;;5078787;28;20044;-59
2023/07/13 01:41:58;;;;;;;8.43;2.00;;;17.00;99.90;;;;;;5079593;28;20045;-58
2023/07/13 01:44:24;;;;;;;8.35;2.40;;;17.00;99.90;;;;;;5080417;28;20178;-59
2023/07/13 01:46:50;;;;;;;12.48;2.58;;;16.90;99.90;;;;;;5078934;28;20055;-58
2023/07/13 01:49:16;;;;;;;8.25;2.15;;;16.80;99.90;;;;;;5080352;28;20400;-59
2023/07/13 01:51:41;;;;;;;9.18;2.20;;;16.80;99.90;;;;;;5077133;28;20050;-58
2023/07/13 01:54:07;;;;;;;7.47;1.70;;;16.70;99.90;;;;;;5080261;28;20098;-58
2023/07/13 01:56:33;;;;;;;8.73;2.45;;;16.70;99.90;;;;;;5078650;28;20075;-59
2023/07/13 01:58:58;;;;;;;8.60;1.92;;;16.70;99.90;;;;;;5079836;28;20070;-59
2023/07/13 02:01:24;;;;;;;6.72;1.45;;;16.70;99.90;;;;;;5079658;28;20052;-58
2023/07/13 02:03:50;;;;;;;6.82;1.80;;;16.70;99.90;;;;;;5078995;28;20058;-58
2023/07/13 02:06:15;;;;;;;8.52;1.20;;;16.60;99.90;;;;;;5079921;28;20059;-58
2023/07/13 02:08:42;;;;;;;7.97;1.50;;;16.70;99.90;;;;;;5078249;28;20044;-58
2023/07/13 02:11:08;;;;;;;5.90;1.10;;;16.70;99.90;;;;;;5079919;28;20049;-58
2023/07/13 02:13:34;;;;;;;4.70;1.30;;;16.70;99.90;;;;;;5078724;28;20044;-59
2023/07/13 02:16:00;;;;;;;6.47;1.20;;;16.70;99.90;;;;;;5079398;28;20066;-58
2023/07/13 02:18:26;;;;;;;5.13;1.40;;;16.60;99.90;;;;;;5079122;28;20096;-58
2023/07/13 02:20:51;;;;;;;6.55;1.25;;;16.50;99.90;;;;;;5078607;28;20040;-59
2023/07/13 02:23:17;;;;;;;5.90;1.45;;;16.60;99.90;;;;;;5079768;28;20507;-59
2023/07/13 02:25:43;;;;;;;7.03;1.42;;;16.50;99.90;;;;;;5078274;28;20037;-59
2023/07/13 02:28:08;;;;;;;5.57;1.40;;;16.50;99.90;;;;;;5079650;28;20119;-59
2023/07/13 02:30:35;;;;;;;4.90;1.10;;;16.60;99.90;;;;;;5076538;28;20096;-59
2023/07/13 02:33:01;;;;;;;5.60;1.10;;;16.60;99.90;;;;;;5079227;28;20049;-59
2023/07/13 02:35:26;;;;;;;6.57;1.40;;;16.60;99.90;;;;;;5078873;28;20043;-59
2023/07/13 02:37:52;;;;;;;4.80;1.10;;;16.60;99.90;;;;;;5078273;28;20119;-59
2023/07/13 02:40:18;;;;;;;4.00;0.90;;;16.60;99.90;;;;;;5079179;28;20169;-58
2023/07/13 02:42:43;;;;;;;4.70;1.25;;;16.60;99.90;;;;;;5078108;28;20094;-59
2023/07/13 02:45:09;;;;;;;5.32;1.20;;;16.70;99.90;;;;;;5079091;28;20044;-58
2023/07/13 02:47:36;;;;;;;4.63;1.20;;;16.60;99.90;;;;;;5077650;28;20563;-59
2023/07/13 02:50:03;;;;;;;4.85;1.33;;;16.60;99.90;;;;;;5079009;28;20082;-58
2023/07/13 02:52:28;;;;;;;3.83;1.05;;;16.50;99.90;;;;;;5077500;28;20033;-58
2023/07/13 02:54:54;;;;;;;4.95;1.25;;;16.50;99.90;;;;;;5078339;28;20114;-58
2023/07/13 02:57:20;;;;;;;4.18;1.25;;;16.50;99.90;;;;;;5077344;28;20055;-58
2023/07/13 02:59:46;;;;;;;4.38;1.13;;;16.50;99.90;;;;;;5077712;28;20425;-57
2023/07/13 03:02:11;;;;;;;4.18;1.30;;;16.40;99.90;;;;;;5078866;28;20388;-58
2023/07/13 03:04:37;;;;;;;5.05;1.20;;;16.40;99.90;;;;;;5077301;28;20048;-58
2023/07/13 03:07:04;;;;;;;3.85;1.15;;;16.30;99.90;;;;;;5078457;28;20045;-58
2023/07/13 03:09:31;;;;;;;8.40;1.75;;;16.30;99.90;;;;;;5077892;28;20040;-58
2023/07/13 03:11:56;;;;;;;7.28;1.38;;;16.10;99.90;;;;;;5078009;28;20051;-58
2023/07/13 03:14:23;;;;;;;6.97;1.50;;;16.20;99.90;;;;;;5078204;28;20040;-58
2023/07/13 03:16:49;;;;;;;6.43;1.42;;;16.10;99.90;;;;;;5077497;28;20066;-57
2023/07/13 03:19:15;;;;;;;8.60;1.58;;;16.10;99.90;;;;;;5078323;28;20074;-58
2023/07/13 03:21:41;;;;;;;6.75;1.50;;;16.10;99.90;;;;;;5076909;28;20060;-57
2023/07/13 03:24:07;;;;;;;6.63;1.65;;;16.10;99.90;;;;;;5078614;28;20039;-58
2023/07/13 03:26:32;;;;;;;5.43;1.50;;;16.10;99.90;;;;;;5077337;28;20044;-58
2023/07/13 03:28:58;;;;;;;8.85;1.88;;;16.10;99.90;;;;;;5078029;28;20055;-58
2023/07/13 03:31:30;;;;;;;6.93;1.70;;;16.20;99.90;;;;;;5077622;28;20064;-58
2023/07/13 03:33:57;;;;;;;9.32;2.00;;;16.10;99.90;;;;;;5077368;28;20048;-57
2023/07/13 03:36:25;;;;;;;10.05;1.95;;;16.20;99.90;;;;;;5076775;28;20049;-57
2023/07/13 03:38:54;;;;;;;8.55;2.20;;;16.20;99.90;;;;;;5075330;28;20049;-58
2023/07/13 03:41:20;;;;;;;12.52;2.20;;;16.20;99.90;;;;;;5078499;28;20041;-58
2023/07/13 03:43:47;;;;;;;9.52;3.00;;;16.20;99.90;;;;;;5077419;28;20055;-57
2023/07/13 03:46:14;;;;;;;9.38;2.80;;;16.20;99.90;;;;;;5077838;28;20158;-57
2023/07/13 03:48:43;;;;;;;11.50;2.70;;;16.10;99.90;;;;;;5076360;28;20044;-58
2023/07/13 03:51:09;;;;;;;11.27;2.83;;;16.20;99.90;;;;;;5077085;28;20041;-57
2023/07/13 03:53:39;;;;;;;10.43;3.92;;;16.10;99.90;;;;;;5077923;28;20041;-57
2023/07/13 03:56:05;;;;;;;11.05;3.78;;;16.10;99.90;;;;;;5076589;28;20048;-57
2023/07/13 03:58:39;;;;;;;9.45;2.85;;;16.00;99.90;;;;;;5077879;28;20557;-57
2023/07/13 04:01:07;;;;;;;15.18;3.78;;;16.10;99.90;;;;;;5077703;28;20049;-57
2023/07/13 04:03:34;;;;;;;12.65;3.58;;;16.00;99.90;;;;;;5076959;28;20028;-57
2023/07/13 04:06:01;;;;;;;14.95;3.50;;;15.90;99.90;;;;;;5077786;28;20060;-56
2023/07/13 04:08:32;;;;;;;14.52;4.20;;;15.90;99.90;;;;;;5076011;28;20036;-57
2023/07/13 04:10:58;;;;;;;;;;;16.00;99.90;;;;;;5078658;28;20055;-57
2023/07/13 04:13:25;;;;;;;11.40;4.10;;;15.90;99.90;;;;;;5076818;28;19920;-57
2023/07/13 04:15:51;;;;;;;14.00;4.28;;;15.80;99.90;;;;;;5077316;28;20048;-55
2023/07/13 04:18:17;;;;;;;12.75;3.70;;;15.90;99.90;;;;;;5077727;28;20056;-60
2023/07/13 04:20:43;;;;;;;13.85;4.53;;;15.90;99.90;;;;;;5077218;28;20097;-61
2023/07/13 04:23:09;;;;;;;11.20;3.60;;;15.90;99.90;;;;;;5077545;28;20063;-60
2023/07/13 04:25:35;;;;;;;17.20;4.75;;;16.00;99.90;;;;;;5076470;28;20037;-60
2023/07/13 04:28:01;;;;;;;11.13;3.70;;;16.00;99.90;;;;;;5078357;28;20106;-60
2023/07/13 04:30:26;;;;;;;11.85;3.75;;;16.10;99.90;;;;;;5076272;28;20400;-60
2023/07/13 04:32:53;;;;;;;13.10;4.13;;;16.10;99.90;;;;;;5077478;28;20064;-61
2023/07/13 04:35:21;;;;;;;15.63;4.35;;;16.10;99.90;;;;;;5076930;28;20055;-59
2023/07/13 04:37:50;;;;;;;13.93;3.70;;;16.20;99.90;;;;;;5076609;28;20048;-60
2023/07/13 04:40:20;;;;;;;12.20;3.45;;;16.20;99.90;;;;;;5077569;28;20174;-60
2023/07/13 04:42:46;;;;;;;15.57;4.65;;;16.30;99.90;;;;;;5076439;28;20393;-60
2023/07/13 04:45:14;;;;;;;13.15;3.60;;;16.30;99.90;;;;;;5077798;28;20124;-60
2023/07/13 04:47:40;;;;;;;12.00;3.92;;;16.30;99.90;;;;;;5076150;28;20043;-60
2023/07/13 04:50:07;;;;;;;12.02;3.65;;;16.30;99.90;;;;;;5077252;28;20048;-59
2023/07/13 04:52:34;;;;;;;13.07;3.58;;;16.40;99.90;;;;;;5076970;28;20044;-59
2023/07/13 04:55:00;;;;;;;10.68;3.38;;;16.50;99.90;;;;;;5076612;28;20052;-59
2023/07/13 04:57:26;;;;;;;15.85;3.72;;;16.50;99.90;;;;;;5077592;28;20080;-59
2023/07/13 04:59:53;;;;;;;13.52;3.83;;;16.60;99.90;;;;;;5076167;28;20044;-60
2023/07/13 05:02:20;;;;;;;8.63;3.30;;;16.70;99.90;;;;;;5077661;28;20041;-60
2023/07/13 05:04:47;;;;;;;13.02;3.50;;;16.70;99.90;;;;;;5075987;28;20048;-59
2023/07/13 05:07:13;;;;;;;13.77;4.78;;;16.80;99.90;;;;;;5077235;28;20040;-60
2023/07/13 05:09:39;;;;;;;13.52;4.25;;;16.90;99.90;;;;;;5076398;28;20246;-60
2023/07/13 05:12:07;;;;;;;12.05;3.38;;;16.90;99.90;;;;;;5076781;28;20061;-60
2023/07/13 05:14:33;;;;;;;15.45;3.47;;;17.00;99.90;;;;;;5078074;28;20036;-59
2023/07/13 05:16:58;;;;;;;10.65;3.20;;;17.00;99.90;;;;;;5079729;28;20044;-60
2023/07/13 05:19:24;;;;;;;9.52;3.03;;;17.10;99.90;;;;;;5080713;28;20059;-60
2023/07/13 05:21:50;;;;;;;10.52;3.25;;;17.10;99.90;;;;;;5079633;28;20052;-58
2023/07/13 05:24:15;;;;;;;9.20;3.72;;;17.10;99.90;;;;;;5080994;28;20104;-60
2023/07/13 05:26:41;;;;;;;13.65;3.22;;;17.20;99.90;;;;;;5079947;28;20040;-58
2023/07/13 05:29:07;;;;;;;13.48;3.50;;;17.30;99.90;;;;;;5080163;28;20048;-57
2023/07/13 05:31:32;;;;;;;11.65;3.60;;;17.20;99.90;;;;;;5080358;28;20040;-58
2023/07/13 05:33:58;;;;;;;9.65;3.30;;;17.40;99.90;;;;;;5079425;28;20041;-57
2023/07/13 05:36:24;;;;;;;11.13;3.40;;;17.50;99.90;;;;;;5080119;28;20045;-57
2023/07/13 05:38:49;;;;;;;15.27;3.90;;;17.30;99.90;;;;;;5078994;28;20048;-58
2023/07/13 05:41:15;;;;;;;9.52;3.20;;;17.50;99.90;;;;;;5079101;28;20048;-57
2023/07/13 05:43:40;;;;;;;15.15;3.15;;;17.50;99.90;;;;;;5078081;28;20048;-59
2023/07/13 05:46:06;;;;;;;13.20;2.85;;;17.60;99.90;;;;;;5079984;28;20059;-58
2023/07/13 05:48:32;;;;;;;9.55;2.83;;;17.70;99.90;;;;;;5079937;28;20100;-57
2023/07/13 05:50:58;;;;;;;8.75;2.70;;;17.80;99.90;;;;;;5079140;28;20060;-58
2023/07/13 05:53:23;;;;;;;10.55;3.33;;;17.70;99.90;;;;;;5080367;28;20044;-58
2023/07/13 05:55:52;;;;;;;11.13;3.25;;;17.60;99.90;;;;;;5078958;28;20055;-59
2023/07/13 05:58:19;;;;;;;12.60;3.00;;;17.80;99.90;;;;;;5078445;28;20055;-58
2023/07/13 06:00:46;;;;;;;8.85;2.72;;;17.90;99.90;;;;;;5076066;28;20052;-58
2023/07/13 06:03:12;;;;;;;11.65;3.60;;;17.90;99.90;;;;;;5076640;28;20048;-58
2023/07/13 06:05:38;;;;;;;9.85;2.92;;;18.00;99.90;;;;;;5076447;28;20112;-58
2023/07/13 06:08:05;;;;;;;9.90;2.67;;;18.00;99.90;;;;;;5075665;28;20047;-59
2023/07/13 06:10:36;;;;;;;9.13;2.25;;;18.20;99.90;;;;;;5076200;28;20056;-57
2023/07/13 06:13:03;;;;;;;12.52;2.88;;;18.10;99.90;;;;;;5075153;28;20046;-58
2023/07/13 06:15:28;;;;;;;12.85;2.78;;;18.20;99.90;;;;;;5058235;28;20567;-58
2023/07/13 06:17:54;;;;;;;12.88;3.72;;;18.30;99.90;;;;;;5074953;28;20494;-58
2023/07/13 06:20:20;;;;;;;9.60;2.60;;;18.30;99.90;;;;;;5075299;28;20083;-58
2023/07/13 06:22:45;;;;;;;11.35;2.72;;;18.50;99.90;;;;;;5075020;28;20114;-58
2023/07/13 06:25:11;;;;;;;9.13;2.88;;;18.60;99.90;;;;;;5074640;28;20044;-59
2023/07/13 06:27:37;;;;;;;8.80;2.65;;;18.70;99.90;;;;;;5075640;28;20044;-58
2023/07/13 06:30:03;;;;;;;11.27;2.50;;;18.80;99.90;;;;;;5074039;28;20100;-58
2023/07/13 06:32:28;;;;;;;10.73;2.22;;;18.70;99.90;;;;;;5075508;28;20049;-59
2023/07/13 06:34:54;;;;;;;10.20;2.28;;;18.60;99.90;;;;;;5074282;28;20303;-58
2023/07/13 06:37:19;;;;;;;10.65;2.55;;;18.80;99.90;;;;;;5074693;28;20055;-59
2023/07/13 06:39:45;;;;;;;11.13;3.50;;;18.80;99.90;;;;;;5074927;28;20052;-58
2023/07/13 06:42:11;;;;;;;11.07;2.38;;;18.90;99.90;;;;;;5074398;28;20079;-59
2023/07/13 06:44:37;;;;;;;6.97;2.28;;;18.90;99.90;;;;;;5075351;28;20052;-58
2023/07/13 06:47:03;;;;;;;9.73;2.67;;;19.00;99.90;;;;;;5073539;28;20050;-58
2023/07/13 06:49:28;;;;;;;11.23;2.58;;;19.00;99.90;;;;;;5075052;28;20075;-58
2023/07/13 06:51:54;;;;;;;9.77;2.67;;;18.90;99.90;;;;;;5055718;28;20086;-58
2023/07/13 06:54:20;;;;;;;9.07;2.10;;;19.00;99.90;;;;;;5074713;28;20121;-58
2023/07/13 06:56:46;;;;;;;6.97;2.00;;;18.90;99.90;;;;;;5074424;28;20056;-58
2023/07/13 06:59:11;;;;;;;9.38;3.00;;;18.90;99.90;;;;;;5073594;28;20048;-58
2023/07/13 07:01:37;;;;;;;5.82;1.60;;;19.10;99.90;;;;;;5074637;28;20059;-58
2023/07/13 07:04:04;;;;;;;7.75;2.05;;;19.00;99.90;;;;;;5073707;28;20559;-59
2023/07/13 07:06:29;;;;;;;7.78;1.90;;;18.70;99.90;;;;;;5074953;28;20118;-58
2023/07/13 07:08:55;;;;;;;6.97;1.70;;;18.60;99.90;;;;;;5073490;28;20122;-58
2023/07/13 07:11:24;;;;;;;9.18;2.17;;;18.60;99.90;;;;;;5074369;28;20103;-58
2023/07/13 07:13:51;;;;;;;8.35;1.92;;;18.60;99.90;;;;;;5074007;28;20052;-58
2023/07/13 07:16:17;;;;;;;7.85;1.70;;;18.70;99.90;;;;;;5074430;28;20075;-58
2023/07/13 07:18:44;;;;;;;6.75;1.90;;;18.80;99.90;;;;;;5074083;28;20040;-58
2023/07/13 07:21:09;;;;;;;8.10;1.73;;;19.00;99.90;;;;;;5073638;28;20053;-58
2023/07/13 07:23:35;;;;;;;7.38;1.85;;;19.00;99.90;;;;;;5074170;28;20045;-58
2023/07/13 07:26:01;;;;;;;5.63;1.60;;;19.30;99.90;;;;;;5072574;28;20036;-58
2023/07/13 07:28:28;;;;;;;6.22;1.70;;;19.40;99.90;;;;;;5073401;28;20801;-59
2023/07/13 07:30:56;;;;;;;6.90;2.33;;;19.60;99.90;;;;;;5074006;28;20057;-58
2023/07/13 07:33:21;;;;;;;6.85;1.80;;;19.60;99.90;;;;;;5074230;28;20393;-58
2023/07/13 07:35:47;;;;;;;6.32;1.75;;;19.80;99.90;;;;;;5074164;28;20075;-58
2023/07/13 07:38:13;;;;;;;9.10;2.05;;;19.90;99.90;;;;;;5072693;28;20567;-58
2023/07/13 07:40:40;;;;;;;8.48;2.10;;;20.10;99.90;;;;;;5074830;28;20041;-58
2023/07/13 07:43:07;;;;;;;8.15;2.55;;;19.70;99.90;;;;;;5073251;28;20041;-59
2023/07/13 07:45:33;;;;;;;11.93;3.28;;;19.60;99.90;;;;;;5074743;28;20131;-58
2023/07/13 07:47:59;;;;;;;7.05;2.30;;;19.50;99.90;;;;;;5072125;28;20045;-58
2023/07/13 07:50:28;;;;;;;7.65;2.13;;;19.40;99.90;;;;;;5076114;28;20045;-58
2023/07/13 07:52:57;;;;;;;9.05;2.78;;;19.40;99.90;;;;;;5077931;28;20052;-58
2023/07/13 07:55:28;;;;;;;7.43;2.60;;;19.20;99.90;;;;;;5077073;28;20105;-58
2023/07/13 07:57:53;;;;;;;8.27;2.17;;;19.20;99.90;;;;;;5078353;28;20053;-58
2023/07/13 08:00:20;;;;;;;6.82;1.60;;;18.90;99.90;;;;;;5075153;28;20521;-60
2023/07/13 08:02:45;;;;;;;6.88;1.60;;;18.70;99.90;;;;;;5078135;28;20041;-59
2023/07/13 08:05:11;;;;;;;5.88;1.60;;;18.70;99.90;;;;;;5077509;28;20044;-59
2023/07/13 08:07:38;;;;;;;6.30;1.90;;;18.70;99.90;;;;;;5077412;28;20711;-59
2023/07/13 08:10:06;;;;;;;5.22;1.60;;;18.80;99.90;;;;;;5078034;28;20037;-59
2023/07/13 08:12:35;;;;;;;5.38;1.60;;;18.80;97.50;;;;;;5076873;28;20590;-59
2023/07/13 08:15:02;;;;;;;5.68;1.52;;;18.70;99.90;;;;;;5076560;28;20041;-59
2023/07/13 08:17:28;;;;;;;7.65;1.90;;;18.70;99.90;;;;;;5076670;28;20039;-60
2023/07/13 08:19:54;;;;;;;5.95;1.73;;;18.70;99.90;;;;;;5076490;28;20516;-60
2023/07/13 08:22:20;;;;;;;10.00;2.15;;;18.60;99.90;;;;;;5077690;28;20059;-58
2023/07/13 08:24:47;;;;;;;8.50;1.75;;;18.50;99.90;;;;;;5077390;28;20104;-59
2023/07/13 08:27:13;;;;;;;5.68;1.70;;;18.50;99.90;;;;;;5078020;28;20044;-58
2023/07/13 08:29:39;;;;;;;5.72;1.52;;;18.40;99.90;;;;;;5077034;28;20051;-58
2023/07/13 08:32:09;;;;;;;6.65;1.70;;;18.30;99.90;;;;;;5077575;28;20048;-59
2023/07/13 08:34:35;;;;;;;6.13;1.75;;;18.30;99.90;;;;;;5076399;28;20040;-60
2023/07/13 08:37:02;;;;;;;3.80;1.40;;;18.30;99.90;;;;;;5077085;28;20051;-59
2023/07/13 08:39:29;;;;;;;6.05;2.08;;;18.20;99.90;;;;;;5075973;28;20075;-59
2023/07/13 08:42:05;;;;;;;6.13;1.73;;;18.30;99.90;;;;;;5077028;28;20040;-59
2023/07/13 08:44:44;;;;;;;7.22;1.70;;;18.30;99.90;;;;;;5077791;28;20071;-58
2023/07/13 08:47:11;;;;;;;7.57;1.98;;;18.30;99.90;;;;;;5076697;28;20049;-59
2023/07/13 08:49:38;;;;;;;7.07;1.80;;;18.40;99.90;;;;;;5080227;28;20071;-58
2023/07/13 08:52:26;;;;;;;7.28;2.10;;;18.40;99.90;;;;;;5080701;28;20049;-58
2023/07/13 08:54:54;;;;;;;7.75;2.33;;;18.50;99.90;;;;;;5080820;28;20068;-59
2023/07/13 08:57:33;;;;;;;6.60;2.20;;;18.60;99.90;;;;;;5081341;28;20059;-59
2023/07/13 08:59:59;;;;;;;7.75;2.33;;;18.70;99.90;;;;;;5080158;28;20048;-59
2023/07/13 09:03:09;;;;;;;6.40;2.00;;;18.70;99.90;;;;;;5081754;28;20443;-59
2023/07/13 09:05:42;;;;;;;7.75;2.70;;;18.90;99.90;;;;;;5058365;28;20045;-58
2023/07/13 09:08:26;;;;;;;12.35;3.05;;;19.00;99.90;;;;;;5076272;28;20108;-59
2023/07/13 09:11:37;;;;;;;6.85;2.20;;;19.30;99.90;;;;;;5081262;28;20057;-58
2023/07/13 09:14:35;;;;;;;11.23;2.65;;;20.00;99.90;;;;;;5075045;28;20468;-58
2023/07/13 09:17:05;;;;;;;9.25;2.50;;;20.30;99.90;;;;;;5079777;28;20492;-58
2023/07/13 09:19:33;;;;;;;9.23;3.05;;;20.20;99.90;;;;;;5080662;28;20077;-58
2023/07/13 09:22:02;;;;;;;6.68;2.83;;;20.40;99.90;;;;;;5079744;28;20045;-59
2023/07/13 09:24:56;;;;;;;11.13;2.42;;;20.90;99.90;;;;;;5080290;28;20040;-59
2023/07/13 09:27:30;;;;;;;6.18;2.10;;;20.60;99.90;;;;;;5080227;28;20044;-59
2023/07/13 09:30:31;;;;;;;7.88;2.50;;;21.00;99.90;;;;;;5079339;28;20041;-58
2023/07/13 09:32:58;;;;;;;7.18;1.90;;;20.90;98.90;;;;;;5071504;28;20115;-59
2023/07/13 09:35:29;;;;;;;7.57;1.70;;;21.10;94.40;;;;;;5080018;28;20059;-58
2023/07/13 09:38:02;;;;;;;11.90;2.42;;;21.00;81.20;;;;;;5079405;28;20040;-58
2023/07/13 09:40:52;;;;;;;6.68;1.60;;;20.80;81.10;;;;;;5080174;28;20044;-59
2023/07/13 09:43:20;;;;;;;6.60;2.05;;;20.50;81.10;;;;;;5078929;28;20049;-59
2023/07/13 09:45:49;;;;;;;4.95;1.58;;;19.90;83.60;;;;;;5079884;28;20395;-57
2023/07/13 09:48:17;;;;;;;6.85;1.45;;;19.80;87.30;;;;;;5080152;28;20812;-59
2023/07/13 09:50:44;;;;;;;5.40;1.48;;;19.80;90.40;;;;;;5079170;28;20055;-58
2023/07/13 09:53:18;;;;;;;5.20;1.35;;;20.20;86.70;;;;;;5080664;28;20052;-58
2023/07/13 09:55:48;;;;;;;5.53;1.30;;;20.60;78.90;;;;;;5079073;28;20040;-60
2023/07/13 09:58:15;;;;;;;5.32;1.48;;;20.90;76.00;;;;;;5080689;28;20094;-59
2023/07/13 10:00:43;;;;;;;4.63;1.30;;;20.90;75.00;;;;;;5078814;28;20056;-59
2023/07/13 10:03:22;;;;;;;4.85;1.40;;;20.50;74.70;;;;;;5079899;28;20044;-58
2023/07/13 10:05:50;;;;;;;5.30;1.20;;;20.20;75.20;;;;;;5080120;28;20159;-57
2023/07/13 10:08:30;;;;;;;5.88;1.30;;;20.20;75.70;;;;;;5079061;28;20078;-58
2023/07/13 10:11:22;;;;;;;4.68;1.17;;;20.40;76.90;;;;;;5079986;28;20102;-58
2023/07/13 10:13:55;;;;;;;7.55;1.20;;;20.40;79.60;;;;;;5076047;28;20068;-58
2023/07/13 10:16:22;;;;;;;4.88;1.27;;;20.30;81.30;;;;;;5065314;28;20116;-57
2023/07/13 10:18:58;;;;;;;5.72;1.45;;;19.90;79.70;;;;;;5079243;28;20061;-57
2023/07/13 10:21:29;;;;;;;4.28;1.40;;;20.20;80.10;;;;;;5065224;28;20057;-58
2023/07/13 10:24:26;;;;;;;5.72;1.30;;;20.50;81.70;;;;;;5073703;28;20043;-59
2023/07/13 10:27:12;;;;;;;6.15;1.45;;;20.30;79.10;;;;;;5073275;28;20046;-58
2023/07/13 10:29:45;;;;;;;4.35;1.23;;;20.20;81.40;;;;;;5067381;28;20118;-59
2023/07/13 10:32:12;;;;;;;4.75;1.15;;;19.80;80.70;;;;;;5078051;28;20076;-58
2023/07/13 10:34:40;;;;;;;2.90;0.98;;;19.70;78.80;;;;;;5068007;28;20044;-58
2023/07/13 10:37:16;;;;;;;3.78;0.90;;;19.70;78.20;;;;;;5067136;28;20174;-58
2023/07/13 10:39:41;;;;;;;3.33;1.00;;;20.10;74.00;;;;;;5061834;28;20037;-58
2023/07/13 10:42:11;;;;;;;4.32;1.05;;;20.20;73.10;;;;;;5074509;28;20053;-58
2023/07/13 10:44:38;;;;;;;4.05;0.88;;;20.60;71.60;;;;;;5063680;28;20063;-59
2023/07/13 10:47:08;;;;;;;5.53;1.30;;;21.00;73.90;;;;;;5068539;28;20049;-58
2023/07/13 10:49:36;;;;;;;5.65;1.00;;;21.10;72.10;;;;;;5060045;28;20045;-59
2023/07/13 10:52:02;;;;;;;3.65;1.10;;;20.80;67.20;;;;;;5065192;28;20098;-58
2023/07/13 10:54:34;;;;;;;4.43;1.48;;;20.70;70.00;;;;;;5066412;28;20049;-59
2023/07/13 10:57:17;;;;;;;4.22;0.93;;;21.00;70.80;;;;;;5069253;28;20135;-59
2023/07/13 10:59:48;;;;;;;5.40;1.23;;;20.70;71.70;;;;;;5058237;28;20079;-58
2023/07/13 11:02:27;;;;;;;5.10;1.20;;;20.40;70.50;;;;;;5059261;28;20174;-58
2023/07/13 11:04:54;;;;;;;4.63;1.20;;;20.20;72.70;;;;;;5058029;28;20041;-58
2023/07/13 11:07:23;;;;;;;5.25;1.42;;;20.70;71.20;;;;;;5060724;28;20506;-59
2023/07/13 11:09:52;;;;;;;5.53;1.20;;;20.90;69.30;;;;;;5069948;28;20082;-58
2023/07/13 11:12:47;;;;;;;5.60;1.38;;;21.10;69.50;;;;;;5059052;28;20377;-59
2023/07/13 11:15:13;;;;;;;7.88;1.80;;;21.20;70.50;;;;;;5058745;28;20452;-59
2023/07/13 11:17:49;;;;;;;6.88;1.92;;;21.40;75.90;;;;;;5057570;28;20049;-59
2023/07/13 11:20:15;;;;;;;4.95;1.30;;;21.00;64.80;;;;;;5056827;28;20060;-57
2023/07/13 11:23:06;;;;;;;5.00;1.35;;;21.10;68.30;;;;;;5059227;28;20048;-59
2023/07/13 11:25:34;;;;;;;4.03;1.30;;;20.80;69.50;;;;;;5066809;28;20052;-58
2023/07/13 11:28:16;;;;;;;5.90;1.48;;;20.50;71.10;;;;;;5067899;28;20037;-59
2023/07/13 11:30:57;;;;;;;6.32;1.45;;;20.60;67.00;;;;;;5067362;28;20045;-58
2023/07/13 11:33:39;;;;;;;5.07;1.10;;;20.40;69.00;;;;;;5062466;28;20052;-59
2023/07/13 11:36:12;;;;;;;4.50;1.20;;;20.20;70.60;;;;;;5063507;28;20043;-58
2023/07/13 11:38:50;;;;;;;4.55;1.42;;;20.50;67.80;;;;;;5076464;28;20051;-59
2023/07/13 11:41:17;;;;;;;8.65;1.40;;;20.60;69.70;;;;;;5067381;28;20053;-59
2023/07/13 11:43:45;;;;;;;6.13;1.20;;;20.70;66.20;;;;;;5069216;28;20049;-59
2023/07/13 11:46:16;;;;;;;5.13;1.73;;;21.10;61.20;;;;;;5057014;28;20060;-59
2023/07/13 11:48:44;;;;;;;3.60;1.20;;;21.50;61.70;;;;;;5058385;28;20059;-59
2023/07/13 11:51:35;;;;;;;4.95;1.40;;;21.60;62.00;;;;;;5058838;28;20067;-59
2023/07/13 11:54:06;;;;;;;6.28;1.50;;;21.30;64.50;;;;;;5063638;28;20045;-59
2023/07/13 11:56:33;;;;;;;6.07;1.30;;;21.40;66.60;;;;;;5062420;28;20044;-59
2023/07/13 11:59:05;;;;;;;4.47;1.20;;;21.30;62.70;;;;;;5067818;28;20053;-59
2023/07/13 12:01:33;;;;;;;5.45;1.40;;;21.50;61.30;;;;;;5063620;28;20124;-59
2023/07/13 12:04:02;;;;;;;5.32;1.35;;;21.50;62.50;;;;;;5057231;28;20056;-59
2023/07/13 12:06:35;;;;;;;4.57;1.30;;;21.90;64.00;;;;;;5056592;28;20077;-58
2023/07/13 12:09:12;;;;;;;5.40;1.40;;;21.80;61.30;;;;;;5057125;28;20436;-59
2023/07/13 12:11:40;;;;;;;3.42;1.33;;;21.90;60.70;;;;;;5057251;28;20092;-59
2023/07/13 12:14:12;;;;;;;8.00;1.70;;;21.50;55.70;;;;;;5057707;28;20056;-58
2023/07/13 12:16:37;;;;;;;5.80;2.28;;;21.50;59.60;;;;;;5063723;28;20048;-59
2023/07/13 12:19:03;;;;;;;8.32;1.50;;;21.40;61.90;;;;;;5064337;28;20061;-59
2023/07/13 12:21:36;;;;;;;5.13;1.52;;;21.60;63.20;;;;;;5065187;28;20053;-59
2023/07/13 12:24:03;;;;;;;7.28;1.40;;;21.10;57.50;;;;;;5059069;28;20052;-58
2023/07/13 12:26:31;;;;;;;6.22;1.73;;;21.00;59.50;;;;;;5065299;28;20041;-59
2023/07/13 12:29:00;;;;;;;7.18;1.60;;;20.20;73.50;;;;;;5060631;28;20037;-59
2023/07/13 12:31:33;;;;;;;5.38;1.30;;;19.20;87.00;;;;;;5065066;28;20045;-59
2023/07/13 12:34:07;;;;;;;4.10;1.15;;;18.70;92.00;;;;;;5068773;28;20116;-59
2023/07/13 12:36:39;;;;;;;5.25;1.30;;;18.50;95.30;;;;;;5067899;28;20519;-59
2023/07/13 12:39:23;;;;;;;4.05;1.30;;;18.30;99.90;;;;;;5066130;28;20057;-59
2023/07/13 12:41:51;;;;;;;3.15;1.10;;;18.40;99.90;;;;;;5067889;28;20052;-59
2023/07/13 12:44:25;;;;;;;7.60;1.55;;;19.20;99.90;;;;;;5069768;28;20576;-58
2023/07/13 12:47:11;;;;;;;4.95;1.63;;;19.40;99.90;;;;;;5070310;28;20049;-59
2023/07/13 12:49:41;;;;;;;7.63;1.95;;;19.40;99.90;;;;;;5074226;28;20052;-58
2023/07/13 12:52:20;;;;;;;7.70;2.05;;;19.10;99.90;;;;;;5071891;28;20098;-58